createdAt,value
2023-04-27T00:00:08.629Z,65.56
2023-04-27T00:01:09.631Z,65.67
2023-04-27T00:02:08.669Z,65.15
2023-04-27T00:03:08.858Z,65.56
2023-04-27T00:04:08.770Z,64.95
2023-04-27T00:05:08.743Z,65.05
2023-04-27T00:06:08.628Z,65.46
2023-04-27T00:07:08.565Z,65.15
2023-04-27T00:08:08.556Z,65.05
2023-04-27T00:09:08.520Z,65.25
2023-04-27T00:10:08.509Z,64.64
2023-04-27T00:11:08.499Z,64.77
2023-04-27T00:12:08.551Z,65.08
2023-04-27T00:13:08.491Z,64.87
2023-04-27T00:14:09.485Z,64.98
2023-04-27T00:15:09.485Z,65.59
2023-04-27T00:16:08.473Z,64.87
2023-04-27T00:17:08.451Z,64.98
2023-04-27T00:18:08.441Z,64.98
2023-04-27T00:19:09.410Z,65.08
2023-04-27T00:20:09.416Z,64.98
2023-04-27T00:21:08.427Z,65.39
2023-04-27T00:22:08.379Z,64.87
2023-04-27T00:23:09.380Z,65.08
2023-04-27T00:24:09.372Z,65.39
2023-04-27T00:25:08.355Z,64.98
2023-04-27T00:26:08.334Z,64.77
2023-04-27T00:27:08.331Z,64.67
2023-04-27T00:28:08.337Z,64.77
2023-04-27T00:29:08.290Z,64.98
2023-04-27T00:30:08.288Z,64.77
2023-04-27T00:31:08.309Z,64.77
2023-04-27T00:32:09.335Z,64.67
2023-04-27T00:33:08.319Z,64.70
2023-04-27T00:34:08.383Z,64.77
2023-04-27T00:35:08.239Z,65.18
2023-04-27T00:36:09.285Z,65.18
2023-04-27T00:37:08.243Z,65.21
2023-04-27T00:38:08.206Z,65.39
2023-04-27T00:39:08.193Z,64.90
2023-04-27T00:40:08.204Z,65.83
2023-04-27T00:41:08.166Z,65.83
2023-04-27T00:42:09.193Z,65.83
2023-04-27T00:43:08.170Z,65.73
2023-04-27T00:44:08.151Z,65.52
2023-04-27T00:45:08.127Z,65.66
2023-04-27T00:46:08.195Z,65.66
2023-04-27T00:47:08.093Z,65.55
2023-04-27T00:48:08.186Z,65.62
2023-04-27T00:49:08.116Z,65.86
2023-04-27T00:50:08.054Z,65.73
2023-04-27T00:51:08.052Z,66.24
2023-04-27T00:52:09.093Z,65.86
2023-04-27T00:53:08.044Z,65.73
2023-04-27T00:54:08.044Z,65.66
2023-04-27T00:55:08.046Z,65.86
2023-04-27T00:56:08.030Z,65.86
2023-04-27T00:57:09.025Z,66.27
2023-04-27T00:58:07.980Z,66.48
2023-04-27T00:59:07.966Z,66.17
2023-04-27T01:00:09.004Z,65.97
2023-04-27T01:01:07.953Z,66.17
2023-04-27T01:02:07.990Z,66.07
2023-04-27T01:03:08.037Z,66.58
2023-04-27T01:04:08.166Z,66.07
2023-04-27T01:05:07.905Z,66.20
2023-04-27T01:06:07.896Z,66.30
2023-04-27T01:07:07.885Z,67.03
2023-04-27T01:08:07.889Z,67.21
2023-04-27T01:09:07.884Z,67.03
2023-04-27T01:10:07.865Z,67.10
2023-04-27T01:11:07.847Z,67.34
2023-04-27T01:12:07.873Z,66.48
2023-04-27T01:13:07.797Z,66.58
2023-04-27T01:14:07.817Z,66.07
2023-04-27T01:15:07.804Z,65.86
2023-04-27T01:16:07.788Z,66.17
2023-04-27T01:17:07.855Z,65.66
2023-04-27T01:18:07.776Z,65.34
2023-04-27T01:19:07.811Z,66.17
2023-04-27T01:20:07.724Z,67.03
2023-04-27T01:21:08.738Z,67.00
2023-04-27T01:22:07.731Z,66.51
2023-04-27T01:23:07.708Z,66.93
2023-04-27T01:24:07.734Z,67.88
2023-04-27T01:25:07.726Z,67.27
2023-04-27T01:26:07.717Z,67.16
2023-04-27T01:27:07.678Z,67.88
2023-04-27T01:28:07.648Z,67.78
2023-04-27T01:29:07.640Z,67.47
2023-04-27T01:30:07.625Z,67.68
2023-04-27T01:31:07.734Z,67.88
2023-04-27T01:32:07.617Z,67.85
2023-04-27T01:33:07.631Z,67.75
2023-04-27T01:34:07.620Z,67.65
2023-04-27T01:35:07.587Z,68.06
2023-04-27T01:36:07.575Z,67.75
2023-04-27T01:37:07.558Z,67.44
2023-04-27T01:38:07.542Z,68.27
2023-04-27T01:39:07.575Z,67.54
2023-04-27T01:40:07.557Z,67.13
2023-04-27T01:41:07.526Z,67.75
2023-04-27T01:42:08.485Z,67.54
2023-04-27T01:43:08.367Z,67.75
2023-04-27T01:44:07.504Z,67.54
2023-04-27T01:45:07.476Z,67.54
2023-04-27T01:46:07.527Z,67.99
2023-04-27T01:47:07.467Z,67.68
2023-04-27T01:48:07.522Z,68.09
2023-04-27T01:49:07.438Z,67.99
2023-04-27T01:50:07.416Z,68.19
2023-04-27T01:51:08.420Z,68.40
2023-04-27T01:52:07.421Z,68.33
2023-04-27T01:53:07.380Z,68.54
2023-04-27T01:54:07.375Z,68.92
2023-04-27T01:55:07.374Z,68.82
2023-04-27T01:56:07.377Z,68.51
2023-04-27T01:57:07.358Z,68.19
2023-04-27T01:58:07.335Z,67.27
2023-04-27T01:59:07.339Z,67.71
2023-04-27T02:00:07.303Z,67.82
2023-04-27T02:01:07.350Z,67.82
2023-04-27T02:02:07.385Z,67.82
2023-04-27T02:03:07.406Z,68.43
2023-04-27T02:04:07.342Z,68.43
2023-04-27T02:05:07.270Z,68.43
2023-04-27T02:06:07.297Z,67.71
2023-04-27T02:07:07.236Z,67.82
2023-04-27T02:08:07.249Z,67.85
2023-04-27T02:09:07.271Z,68.15
2023-04-27T02:10:07.232Z,68.15
2023-04-27T02:11:07.220Z,68.77
2023-04-27T02:12:07.204Z,68.98
2023-04-27T02:13:07.174Z,68.43
2023-04-27T02:14:07.163Z,68.12
2023-04-27T02:15:07.161Z,67.88
2023-04-27T02:16:07.201Z,68.70
2023-04-27T02:17:07.166Z,68.88
2023-04-27T02:18:07.187Z,68.67
2023-04-27T02:19:07.166Z,68.95
2023-04-27T02:20:07.099Z,68.64
2023-04-27T02:21:08.114Z,68.33
2023-04-27T02:22:07.103Z,68.43
2023-04-27T02:23:07.063Z,67.78
2023-04-27T02:24:07.044Z,67.61
2023-04-27T02:25:07.059Z,67.68
2023-04-27T02:26:07.035Z,67.78
2023-04-27T02:27:08.062Z,67.06
2023-04-27T02:28:07.153Z,67.16
2023-04-27T02:29:07.098Z,67.37
2023-04-27T02:30:06.966Z,67.78
2023-04-27T02:31:06.990Z,67.47
2023-04-27T02:32:07.008Z,67.99
2023-04-27T02:33:07.018Z,67.27
2023-04-27T02:34:06.962Z,68.02
2023-04-27T02:35:06.931Z,68.02
2023-04-27T02:36:07.944Z,67.71
2023-04-27T02:37:06.949Z,68.98
2023-04-27T02:38:06.892Z,69.09
2023-04-27T02:39:06.922Z,69.19
2023-04-27T02:40:06.902Z,69.29
2023-04-27T02:41:06.871Z,68.74
2023-04-27T02:42:07.931Z,68.43
2023-04-27T02:43:06.878Z,68.43
2023-04-27T02:44:06.855Z,68.33
2023-04-27T02:45:06.842Z,67.61
2023-04-27T02:46:07.874Z,67.71
2023-04-27T02:47:07.865Z,67.50
2023-04-27T02:48:07.818Z,67.22
2023-04-27T02:49:06.806Z,68.12
2023-04-27T02:50:07.790Z,67.61
2023-04-27T02:51:06.754Z,67.64
2023-04-27T02:52:06.801Z,67.71
2023-04-27T02:53:06.768Z,67.61
2023-04-27T02:54:06.739Z,67.40
2023-04-27T02:55:06.729Z,67.30
2023-04-27T02:56:06.712Z,67.40
2023-04-27T02:57:06.726Z,66.67
2023-04-27T02:58:06.685Z,67.19
2023-04-27T02:59:06.697Z,67.09
2023-04-27T03:00:07.683Z,67.16
2023-04-27T03:01:06.712Z,67.19
2023-04-27T03:02:06.727Z,66.57
2023-04-27T03:03:06.798Z,66.44
2023-04-27T03:04:07.818Z,66.54
2023-04-27T03:05:07.656Z,66.36
2023-04-27T03:06:07.607Z,66.57
2023-04-27T03:07:06.597Z,67.40
2023-04-27T03:08:06.593Z,67.19
2023-04-27T03:09:07.659Z,66.26
2023-04-27T03:10:06.558Z,66.99
2023-04-27T03:11:06.591Z,66.67
2023-04-27T03:12:06.526Z,67.40
2023-04-27T03:13:06.542Z,67.64
2023-04-27T03:14:06.554Z,67.85
2023-04-27T03:15:07.505Z,67.64
2023-04-27T03:16:06.557Z,68.12
2023-04-27T03:17:06.493Z,68.43
2023-04-27T03:18:06.599Z,67.82
2023-04-27T03:19:07.464Z,67.61
2023-04-27T03:20:06.465Z,68.12
2023-04-27T03:21:06.426Z,67.50
2023-04-27T03:22:06.408Z,67.40
2023-04-27T03:23:06.432Z,67.30
2023-04-27T03:24:07.412Z,67.71
2023-04-27T03:25:06.389Z,67.40
2023-04-27T03:26:07.383Z,67.30
2023-04-27T03:27:06.363Z,67.19
2023-04-27T03:28:06.354Z,67.50
2023-04-27T03:29:06.350Z,67.09
2023-04-27T03:30:06.343Z,67.50
2023-04-27T03:31:07.318Z,67.61
2023-04-27T03:32:06.509Z,67.30
2023-04-27T03:33:06.322Z,67.27
2023-04-27T03:34:06.295Z,67.30
2023-04-27T03:35:06.293Z,67.58
2023-04-27T03:36:06.266Z,67.50
2023-04-27T03:37:06.337Z,67.30
2023-04-27T03:38:07.287Z,67.30
2023-04-27T03:39:07.238Z,66.67
2023-04-27T03:40:06.236Z,67.09
2023-04-27T03:41:06.227Z,67.85
2023-04-27T03:42:07.216Z,67.85
2023-04-27T03:43:06.194Z,68.15
2023-04-27T03:44:06.232Z,68.15
2023-04-27T03:45:06.167Z,67.85
2023-04-27T03:46:06.175Z,68.40
2023-04-27T03:47:07.164Z,68.40
2023-04-27T03:48:06.219Z,68.67
2023-04-27T03:49:06.152Z,68.67
2023-04-27T03:50:06.131Z,68.36
2023-04-27T03:51:06.098Z,68.67
2023-04-27T03:52:06.102Z,68.36
2023-04-27T03:53:06.100Z,68.05
2023-04-27T03:54:06.064Z,68.36
2023-04-27T03:55:07.303Z,68.36
2023-04-27T03:56:06.062Z,68.57
2023-04-27T03:57:06.047Z,68.12
2023-04-27T03:58:06.039Z,68.23
2023-04-27T03:59:06.016Z,68.54
2023-04-27T04:00:06.022Z,68.02
2023-04-27T04:01:06.985Z,67.82
2023-04-27T04:02:06.046Z,67.71
2023-04-27T04:03:06.283Z,67.85
2023-04-27T04:04:06.115Z,67.85
2023-04-27T04:05:06.126Z,67.85
2023-04-27T04:06:06.957Z,68.26
2023-04-27T04:07:06.933Z,68.77
2023-04-27T04:08:06.923Z,68.88
2023-04-27T04:09:05.902Z,69.06
2023-04-27T04:10:06.922Z,68.85
2023-04-27T04:11:05.882Z,68.02
2023-04-27T04:12:05.883Z,67.61
2023-04-27T04:13:05.913Z,68.12
2023-04-27T04:14:05.859Z,67.61
2023-04-27T04:15:05.866Z,67.88
2023-04-27T04:16:05.880Z,67.78
2023-04-27T04:17:06.815Z,67.47
2023-04-27T04:18:05.891Z,68.02
2023-04-27T04:19:05.830Z,67.47
2023-04-27T04:20:05.801Z,67.58
2023-04-27T04:21:05.790Z,67.47
2023-04-27T04:22:06.781Z,67.68
2023-04-27T04:23:06.781Z,67.68
2023-04-27T04:24:06.740Z,67.58
2023-04-27T04:25:05.729Z,68.09
2023-04-27T04:26:06.723Z,67.65
2023-04-27T04:27:05.721Z,68.30
2023-04-27T04:28:05.685Z,67.58
2023-04-27T04:29:05.701Z,68.51
2023-04-27T04:30:05.673Z,68.30
2023-04-27T04:31:05.796Z,68.16
2023-04-27T04:32:05.675Z,68.16
2023-04-27T04:33:05.731Z,68.37
2023-04-27T04:34:06.643Z,68.37
2023-04-27T04:35:05.636Z,68.27
2023-04-27T04:36:05.630Z,68.27
2023-04-27T04:37:05.638Z,68.24
2023-04-27T04:38:05.613Z,68.24
2023-04-27T04:39:05.579Z,68.34
2023-04-27T04:40:06.570Z,67.82
2023-04-27T04:41:06.643Z,67.82
2023-04-27T04:42:05.565Z,67.51
2023-04-27T04:43:05.562Z,68.13
2023-04-27T04:44:06.509Z,67.51
2023-04-27T04:45:06.516Z,67.61
2023-04-27T04:46:05.543Z,68.03
2023-04-27T04:47:05.505Z,68.24
2023-04-27T04:48:05.615Z,67.69
2023-04-27T04:49:05.492Z,68.10
2023-04-27T04:50:05.475Z,68.00
2023-04-27T04:51:06.476Z,67.55
2023-04-27T04:52:05.442Z,67.38
2023-04-27T04:53:05.444Z,67.24
2023-04-27T04:54:06.398Z,67.35
2023-04-27T04:55:05.405Z,67.35
2023-04-27T04:56:05.418Z,66.73
2023-04-27T04:57:06.419Z,67.24
2023-04-27T04:58:05.416Z,67.00
2023-04-27T04:59:05.375Z,67.21
2023-04-27T05:00:06.429Z,67.21
2023-04-27T05:01:05.371Z,66.67
2023-04-27T05:02:06.371Z,66.36
2023-04-27T05:03:05.358Z,65.40
2023-04-27T05:04:05.659Z,65.40
2023-04-27T05:05:05.311Z,65.40
2023-04-27T05:06:05.307Z,65.61
2023-04-27T05:07:06.282Z,66.33
2023-04-27T05:08:05.280Z,66.15
2023-04-27T05:09:05.258Z,66.25
2023-04-27T05:10:06.278Z,67.18
2023-04-27T05:11:05.247Z,66.56
2023-04-27T05:12:05.260Z,66.05
2023-04-27T05:13:07.163Z,66.56
2023-04-27T05:14:05.238Z,66.46
2023-04-27T05:15:05.183Z,67.08
2023-04-27T05:16:05.247Z,66.77
2023-04-27T05:17:05.165Z,66.97
2023-04-27T05:18:06.203Z,67.11
2023-04-27T05:19:06.171Z,66.60
2023-04-27T05:20:05.170Z,67.18
2023-04-27T05:21:05.149Z,67.11
2023-04-27T05:22:05.129Z,66.87
2023-04-27T05:23:05.129Z,67.21
2023-04-27T05:24:05.128Z,67.29
2023-04-27T05:25:05.094Z,66.97
2023-04-27T05:26:05.074Z,67.08
2023-04-27T05:27:06.090Z,67.05
2023-04-27T05:28:05.060Z,66.84
2023-04-27T05:29:05.056Z,66.91
2023-04-27T05:30:05.055Z,66.30
2023-04-27T05:31:05.033Z,66.81
2023-04-27T05:32:06.165Z,66.61
2023-04-27T05:33:05.060Z,65.95
2023-04-27T05:34:04.990Z,66.19
2023-04-27T05:35:04.995Z,65.99
2023-04-27T05:36:04.962Z,65.44
2023-04-27T05:37:04.976Z,65.58
2023-04-27T05:38:04.943Z,65.47
2023-04-27T05:39:04.954Z,65.95
2023-04-27T05:40:04.944Z,65.13
2023-04-27T05:41:04.906Z,65.34
2023-04-27T05:42:04.937Z,65.34
2023-04-27T05:43:04.928Z,65.34
2023-04-27T05:44:04.881Z,65.44
2023-04-27T05:45:04.868Z,65.65
2023-04-27T05:46:04.967Z,66.16
2023-04-27T05:47:04.827Z,65.55
2023-04-27T05:48:04.856Z,65.13
2023-04-27T05:49:04.880Z,65.13
2023-04-27T05:50:04.805Z,65.44
2023-04-27T05:51:04.842Z,65.55
2023-04-27T05:52:04.818Z,65.62
2023-04-27T05:53:04.776Z,65.52
2023-04-27T05:54:04.774Z,65.41
2023-04-27T05:55:05.743Z,64.56
2023-04-27T05:56:04.905Z,64.46
2023-04-27T05:57:04.813Z,64.36
2023-04-27T05:58:08.629Z,64.46
2023-04-27T05:59:04.727Z,64.53
2023-04-27T06:00:04.716Z,64.25
2023-04-27T06:01:04.708Z,63.40
2023-04-27T06:02:04.734Z,63.20
2023-04-27T06:03:04.794Z,63.06
2023-04-27T06:04:04.742Z,62.24
2023-04-27T06:05:05.724Z,62.34
2023-04-27T06:06:04.638Z,62.24
2023-04-27T06:07:05.641Z,62.34
2023-04-27T06:08:04.623Z,62.04
2023-04-27T06:09:05.606Z,62.55
2023-04-27T06:10:04.587Z,62.85
2023-04-27T06:11:04.565Z,62.27
2023-04-27T06:12:04.615Z,62.65
2023-04-27T06:13:04.583Z,62.96
2023-04-27T06:14:05.592Z,62.85
2023-04-27T06:15:04.564Z,63.44
2023-04-27T06:16:04.538Z,63.03
2023-04-27T06:17:05.521Z,63.03
2023-04-27T06:18:04.564Z,63.13
2023-04-27T06:19:04.484Z,62.93
2023-04-27T06:20:04.565Z,62.70
2023-04-27T06:21:04.509Z,62.90
2023-04-27T06:22:04.509Z,61.98
2023-04-27T06:23:04.443Z,62.49
2023-04-27T06:24:04.433Z,61.87
2023-04-27T06:25:12.053Z,61.02
2023-04-27T06:26:04.441Z,61.33
2023-04-27T06:27:04.411Z,60.51
2023-04-27T06:28:04.409Z,60.00
2023-04-27T06:29:04.400Z,60.21
2023-04-27T06:30:04.367Z,60.41
2023-04-27T06:31:05.490Z,60.51
2023-04-27T06:32:05.377Z,60.31
2023-04-27T06:33:04.396Z,60.31
2023-04-27T06:34:04.324Z,60.10
2023-04-27T06:35:05.348Z,59.59
2023-04-27T06:36:04.306Z,59.56
2023-04-27T06:37:04.284Z,60.17
2023-04-27T06:39:04.252Z,59.74
2023-04-27T06:40:04.281Z,58.79
2023-04-27T06:41:04.270Z,58.38
2023-04-27T06:42:04.230Z,58.69
2023-04-27T06:43:04.222Z,58.56
2023-04-27T06:44:04.231Z,59.17
2023-04-27T06:45:04.231Z,58.35
2023-04-27T06:46:04.222Z,57.94
2023-04-27T06:47:04.205Z,58.33
2023-04-27T06:48:04.189Z,57.94
2023-04-27T06:49:04.196Z,56.92
2023-04-27T06:50:04.164Z,57.84
2023-04-27T06:51:04.150Z,57.79
2023-04-27T06:52:04.125Z,56.79
2023-04-27T06:53:04.188Z,55.97
2023-04-27T06:54:05.122Z,56.99
2023-04-27T06:55:04.123Z,57.17
2023-04-27T06:56:04.096Z,57.07
2023-04-27T06:57:04.124Z,56.84
2023-04-27T06:58:04.065Z,56.92
2023-04-27T06:59:04.083Z,57.53
2023-04-27T07:00:04.091Z,55.38
2023-04-27T07:01:04.088Z,55.82
2023-04-27T07:02:05.034Z,57.25
2023-04-27T07:03:05.079Z,56.92
2023-04-27T07:04:04.093Z,56.92
2023-04-27T07:05:04.049Z,57.12
2023-04-27T07:06:03.977Z,56.48
2023-04-27T07:07:03.993Z,56.27
2023-04-27T07:08:07.771Z,55.66
2023-04-27T07:09:10.419Z,55.26
2023-04-27T07:10:04.977Z,55.15
2023-04-27T07:11:03.961Z,54.85
2023-04-27T07:12:04.056Z,56.15
2023-04-27T07:13:03.899Z,55.26
2023-04-27T07:14:03.884Z,55.15
2023-04-27T07:15:03.931Z,55.46
2023-04-27T07:16:04.012Z,55.46
2023-04-27T07:17:03.892Z,55.58
2023-04-27T07:18:03.888Z,55.08
2023-04-27T07:19:03.872Z,55.18
2023-04-27T07:20:03.825Z,55.15
2023-04-27T07:21:03.821Z,56.17
2023-04-27T07:22:03.872Z,56.07
2023-04-27T07:23:03.779Z,55.13
2023-04-27T07:24:03.779Z,55.23
2023-04-27T07:25:03.752Z,56.15
2023-04-27T07:26:03.754Z,54.95
2023-04-27T07:27:03.747Z,55.02
2023-04-27T07:28:04.783Z,54.61
2023-04-27T07:29:14.633Z,54.51
2023-04-27T07:30:04.736Z,55.02
2023-04-27T07:31:03.710Z,55.30
2023-04-27T07:32:03.747Z,54.79
2023-04-27T07:33:03.781Z,54.41
2023-04-27T07:34:03.696Z,54.61
2023-04-27T07:35:03.665Z,55.13
2023-04-27T07:36:03.792Z,55.33
2023-04-27T07:37:03.660Z,54.64
2023-04-27T07:38:03.655Z,55.05
2023-04-27T07:39:03.622Z,55.97
2023-04-27T07:40:03.589Z,56.25
2023-04-27T07:41:03.586Z,55.54
2023-04-27T07:42:04.581Z,55.51
2023-04-27T07:43:03.555Z,55.00
2023-04-27T07:44:04.560Z,55.71
2023-04-27T07:45:03.551Z,55.18
2023-04-27T07:46:03.553Z,55.10
2023-04-27T07:47:03.531Z,55.28
2023-04-27T07:48:03.668Z,55.18
2023-04-27T07:49:03.528Z,55.07
2023-04-27T07:50:04.492Z,54.77
2023-04-27T07:51:04.469Z,55.38
2023-04-27T07:52:03.467Z,55.05
2023-04-27T07:53:03.473Z,55.05
2023-04-27T07:54:03.464Z,54.36
2023-04-27T07:55:03.430Z,53.72
2023-04-27T07:56:03.476Z,53.64
2023-04-27T07:57:03.448Z,54.46
2023-04-27T07:58:03.435Z,54.57
2023-04-27T07:59:03.408Z,54.57
2023-04-27T08:00:03.382Z,54.24
2023-04-27T08:01:03.372Z,54.94
2023-04-27T08:02:11.145Z,54.61
2023-04-27T08:03:04.533Z,54.82
2023-04-27T08:04:03.711Z,53.70
2023-04-27T08:05:03.868Z,53.62
2023-04-27T08:06:03.765Z,54.51
2023-04-27T08:07:03.608Z,53.29
2023-04-27T08:08:03.433Z,53.59
2023-04-27T08:09:04.299Z,52.98
2023-04-27T08:10:04.256Z,53.50
2023-04-27T08:11:03.289Z,53.98
2023-04-27T08:12:04.230Z,54.90
2023-04-27T08:13:03.261Z,53.27
2023-04-27T08:14:03.237Z,53.24
2023-04-27T08:15:03.211Z,52.83
2023-04-27T08:16:03.195Z,52.83
2023-04-27T08:17:03.358Z,52.63
2023-04-27T08:18:03.233Z,52.20
2023-04-27T08:19:03.219Z,51.48
2023-04-27T08:20:03.182Z,51.20
2023-04-27T08:21:03.146Z,51.92
2023-04-27T08:22:03.142Z,52.02
2023-04-27T08:23:03.135Z,52.30
2023-04-27T08:24:04.138Z,52.10
2023-04-27T08:25:03.089Z,51.16
2023-04-27T08:26:03.119Z,51.26
2023-04-27T08:27:03.118Z,50.42
2023-04-27T08:28:03.065Z,50.65
2023-04-27T08:29:11.662Z,50.52
2023-04-27T08:30:04.066Z,51.03
2023-04-27T08:31:04.095Z,50.12
2023-04-27T08:32:03.040Z,48.49
2023-04-27T08:33:03.040Z,48.49
2023-04-27T08:34:03.995Z,48.39
2023-04-27T08:35:03.012Z,49.10
2023-04-27T08:36:04.018Z,49.61
2023-04-27T08:37:02.978Z,49.38
2023-04-27T08:38:03.002Z,49.58
2023-04-27T08:39:03.994Z,49.61
2023-04-27T08:40:02.985Z,49.51
2023-04-27T08:41:18.104Z,49.71
2023-04-27T08:42:03.924Z,50.42
2023-04-27T08:43:03.904Z,50.83
2023-04-27T08:44:02.894Z,49.38
2023-04-27T08:45:03.904Z,49.28
2023-04-27T08:46:02.959Z,50.50
2023-04-27T08:47:03.860Z,49.69
2023-04-27T08:48:02.938Z,48.49
2023-04-27T08:49:02.867Z,48.49
2023-04-27T08:50:02.835Z,48.39
2023-04-27T08:51:02.844Z,49.61
2023-04-27T08:52:02.851Z,49.81
2023-04-27T08:53:02.839Z,48.59
2023-04-27T08:54:02.828Z,47.98
2023-04-27T08:55:02.800Z,48.28
2023-04-27T08:56:02.770Z,48.69
2023-04-27T08:57:02.790Z,47.67
2023-04-27T08:58:02.777Z,47.50
2023-04-27T08:59:02.743Z,47.60
2023-04-27T09:00:02.712Z,47.82
2023-04-27T09:01:02.704Z,47.31
2023-04-27T09:02:02.749Z,46.70
2023-04-27T09:03:02.896Z,47.85
2023-04-27T09:04:02.957Z,48.03
2023-04-27T09:05:02.846Z,47.34
2023-04-27T09:06:05.854Z,48.15
2023-04-27T09:07:02.652Z,48.74
2023-04-27T09:08:02.790Z,49.12
2023-04-27T09:09:02.650Z,47.82
2023-04-27T09:10:02.637Z,47.50
2023-04-27T09:11:02.596Z,47.67
2023-04-27T09:12:02.625Z,47.14
2023-04-27T09:13:02.586Z,46.74
2023-04-27T09:14:03.593Z,46.84
2023-04-27T09:15:02.589Z,47.14
2023-04-27T09:16:02.598Z,46.94
2023-04-27T09:17:02.550Z,46.53
2023-04-27T09:18:02.643Z,46.82
2023-04-27T09:19:02.589Z,46.01
2023-04-27T09:20:03.526Z,46.94
2023-04-27T09:21:02.518Z,45.42
2023-04-27T09:22:02.483Z,45.93
2023-04-27T09:23:02.474Z,45.01
2023-04-27T09:24:02.482Z,44.73
2023-04-27T09:25:02.441Z,46.23
2023-04-27T09:26:02.445Z,47.96
2023-04-27T09:27:02.424Z,47.43
2023-04-27T09:28:02.433Z,47.35
2023-04-27T09:29:02.406Z,47.55
2023-04-27T09:30:02.455Z,47.75
2023-04-27T09:31:02.434Z,46.94
2023-04-27T09:32:02.505Z,47.14
2023-04-27T09:33:02.427Z,46.51
2023-04-27T09:34:02.358Z,46.84
2023-04-27T09:35:02.369Z,46.45
2023-04-27T09:36:02.316Z,47.86
2023-04-27T09:37:02.333Z,47.05
2023-04-27T09:38:02.364Z,46.41
2023-04-27T09:39:02.308Z,47.02
2023-04-27T09:40:02.545Z,46.64
2023-04-27T09:41:02.308Z,46.72
2023-04-27T09:42:03.278Z,46.31
2023-04-27T09:43:02.269Z,45.90
2023-04-27T09:44:02.260Z,45.09
2023-04-27T09:45:02.236Z,45.70
2023-04-27T09:46:02.289Z,45.21
2023-04-27T09:47:02.233Z,46.15
2023-04-27T09:48:03.251Z,45.93
2023-04-27T09:49:02.195Z,46.41
2023-04-27T09:50:02.273Z,46.41
2023-04-27T09:51:02.175Z,46.41
2023-04-27T09:52:03.175Z,46.70
2023-04-27T09:53:02.166Z,45.78
2023-04-27T09:54:02.129Z,45.68
2023-04-27T09:55:02.120Z,46.80
2023-04-27T09:56:02.142Z,45.60
2023-04-27T09:57:02.109Z,45.90
2023-04-27T09:58:02.093Z,45.80
2023-04-27T09:59:02.120Z,45.60
2023-04-27T10:00:02.060Z,45.90
2023-04-27T10:01:02.102Z,45.20
2023-04-27T10:02:09.899Z,45.29
2023-04-27T10:03:03.100Z,45.52
2023-04-27T10:04:02.176Z,46.13
2023-04-27T10:05:02.047Z,46.44
2023-04-27T10:06:03.012Z,46.97
2023-04-27T10:07:02.000Z,46.33
2023-04-27T10:08:01.972Z,46.66
2023-04-27T10:09:01.954Z,46.56
2023-04-27T10:10:02.966Z,46.97
2023-04-27T10:11:02.024Z,46.84
2023-04-27T10:12:01.955Z,47.14
2023-04-27T10:13:01.964Z,47.86
2023-04-27T10:14:01.937Z,47.33
2023-04-27T10:15:01.909Z,47.55
2023-04-27T10:16:01.897Z,47.25
2023-04-27T10:17:02.024Z,46.86
2023-04-27T10:18:02.904Z,47.17
2023-04-27T10:19:01.895Z,47.25
2023-04-27T10:20:02.837Z,48.24
2023-04-27T10:21:01.833Z,47.13
2023-04-27T10:22:01.853Z,47.55
2023-04-27T10:23:02.834Z,47.74
2023-04-27T10:24:01.805Z,47.02
2023-04-27T10:25:01.800Z,46.84
2023-04-27T10:26:01.793Z,47.33
2023-04-27T10:27:01.775Z,47.20
2023-04-27T10:28:01.811Z,46.29
2023-04-27T10:29:01.795Z,46.19
2023-04-27T10:30:01.734Z,45.78
2023-04-27T10:31:01.810Z,46.19
2023-04-27T10:32:01.802Z,44.46
2023-04-27T10:33:02.743Z,43.75
2023-04-27T10:34:01.686Z,45.20
2023-04-27T10:35:01.678Z,45.20
2023-04-27T10:36:01.684Z,44.68
2023-04-27T10:37:01.657Z,44.28
2023-04-27T10:38:01.649Z,45.70
2023-04-27T10:39:02.669Z,45.50
2023-04-27T10:40:01.626Z,44.56
2023-04-27T10:41:01.735Z,43.37
2023-04-27T10:42:02.628Z,43.87
2023-04-27T10:43:01.624Z,45.17
2023-04-27T10:44:01.672Z,44.85
2023-04-27T10:45:01.570Z,43.65
2023-04-27T10:46:01.659Z,43.75
2023-04-27T10:47:01.635Z,43.35
2023-04-27T10:48:01.776Z,42.23
2023-04-27T10:49:02.559Z,43.75
2023-04-27T10:50:01.516Z,44.04
2023-04-27T10:51:01.521Z,42.41
2023-04-27T10:52:01.495Z,44.65
2023-04-27T10:53:01.494Z,44.93
2023-04-27T10:54:01.522Z,45.74
2023-04-27T10:55:01.465Z,43.61
2023-04-27T10:56:01.475Z,44.82
2023-04-27T10:57:01.449Z,43.08
2023-04-27T10:58:01.438Z,41.99
2023-04-27T10:59:01.438Z,42.19
2023-04-27T11:00:01.530Z,41.58
2023-04-27T11:01:01.433Z,41.99
2023-04-27T11:02:02.446Z,41.70
2023-04-27T11:03:01.477Z,41.30
2023-04-27T11:04:01.469Z,40.70
2023-04-27T11:05:01.547Z,41.30
2023-04-27T11:06:01.332Z,41.70
2023-04-27T11:07:01.329Z,41.42
2023-04-27T11:08:01.326Z,41.42
2023-04-27T11:09:02.398Z,41.54
2023-04-27T11:10:01.333Z,42.45
2023-04-27T11:11:01.312Z,42.05
2023-04-27T11:12:01.301Z,41.72
2023-04-27T11:13:01.293Z,42.74
2023-04-27T11:14:01.267Z,41.93
2023-04-27T11:15:01.266Z,41.70
2023-04-27T11:16:01.335Z,42.00
2023-04-27T11:17:01.211Z,42.49
2023-04-27T11:18:01.252Z,41.40
2023-04-27T11:19:02.226Z,42.72
2023-04-27T11:20:01.233Z,42.61
2023-04-27T11:21:01.189Z,41.80
2023-04-27T11:22:01.164Z,41.50
2023-04-27T11:23:01.156Z,41.88
2023-04-27T11:24:01.150Z,41.36
2023-04-27T11:25:01.213Z,41.26
2023-04-27T11:26:01.150Z,40.73
2023-04-27T11:27:02.135Z,41.03
2023-04-27T11:28:01.146Z,41.26
2023-04-27T11:29:01.091Z,41.95
2023-04-27T11:30:01.062Z,40.53
2023-04-27T11:31:01.141Z,41.34
2023-04-27T11:32:01.128Z,39.43
2023-04-27T11:33:01.102Z,41.03
2023-04-27T11:34:01.065Z,40.94
2023-04-27T11:35:02.016Z,41.54
2023-04-27T11:36:01.035Z,40.14
2023-04-27T11:38:01.004Z,41.63
2023-04-27T11:39:01.062Z,39.92
2023-04-27T11:40:00.959Z,40.43
2023-04-27T11:41:01.944Z,41.24
2023-04-27T11:42:00.940Z,41.24
2023-04-27T11:43:00.938Z,40.12
2023-04-27T11:44:01.940Z,41.34
2023-04-27T11:45:00.944Z,40.43
2023-04-27T11:46:00.924Z,41.78
2023-04-27T11:47:00.994Z,41.68
2023-04-27T11:48:00.992Z,41.77
2023-04-27T11:49:00.899Z,41.86
2023-04-27T11:50:00.912Z,42.07
2023-04-27T11:51:00.866Z,41.64
2023-04-27T11:52:00.824Z,41.05
2023-04-27T11:53:00.825Z,39.73
2023-04-27T11:54:00.821Z,41.64
2023-04-27T11:55:00.791Z,40.63
2023-04-27T11:56:00.813Z,40.53
2023-04-27T11:57:01.821Z,41.26
2023-04-27T11:58:00.760Z,42.60
2023-04-27T11:59:00.752Z,41.66
2023-04-27T12:00:01.761Z,42.19
2023-04-27T12:01:00.771Z,42.09
2023-04-27T12:02:01.786Z,42.09
2023-04-27T12:03:00.921Z,42.37
2023-04-27T12:04:02.517Z,42.05
2023-04-27T12:05:01.082Z,41.72
2023-04-27T12:07:00.683Z,41.46
2023-04-27T12:08:00.693Z,41.26
2023-04-27T12:09:00.630Z,41.46
2023-04-27T12:10:01.656Z,42.07
2023-04-27T12:11:00.680Z,42.37
2023-04-27T12:12:00.612Z,42.07
2023-04-27T12:13:00.624Z,42.66
2023-04-27T12:14:00.603Z,42.05
2023-04-27T12:15:00.594Z,42.43
2023-04-27T12:16:01.101Z,40.43
2023-04-27T12:17:00.616Z,41.56
2023-04-27T12:18:00.614Z,41.54
2023-04-27T12:19:01.587Z,41.34
2023-04-27T12:20:00.575Z,40.73
2023-04-27T12:21:02.994Z,41.42
2023-04-27T12:22:00.560Z,41.02
2023-04-27T12:23:00.504Z,40.00
2023-04-27T12:24:00.467Z,40.31
2023-04-27T12:25:00.478Z,40.00
2023-04-27T12:26:00.482Z,40.20
2023-04-27T12:27:00.488Z,39.70
2023-04-27T12:28:00.451Z,41.20
2023-04-27T12:29:01.436Z,41.60
2023-04-27T12:30:00.402Z,40.17
2023-04-27T12:31:00.443Z,39.17
2023-04-27T12:32:01.437Z,39.70
2023-04-27T12:33:00.522Z,39.51
2023-04-27T12:34:00.424Z,39.42
2023-04-27T12:35:00.381Z,40.00
2023-04-27T12:36:00.374Z,39.88
2023-04-27T12:37:00.363Z,40.31
2023-04-27T12:38:00.337Z,41.30
2023-04-27T12:39:00.344Z,39.70
2023-04-27T12:40:00.359Z,39.39
2023-04-27T12:41:00.317Z,38.70
2023-04-27T12:42:00.286Z,39.33
2023-04-27T12:43:01.370Z,40.55
2023-04-27T12:44:01.337Z,40.00
2023-04-27T12:45:00.289Z,39.70
2023-04-27T12:46:00.322Z,40.20
2023-04-27T12:47:00.368Z,40.09
2023-04-27T12:48:03.766Z,39.17
2023-04-27T12:49:00.237Z,39.46
2023-04-27T12:50:01.179Z,39.17
2023-04-27T12:51:00.216Z,40.27
2023-04-27T12:52:00.270Z,39.66
2023-04-27T12:53:00.240Z,39.54
2023-04-27T12:54:01.097Z,39.84
2023-04-27T12:55:01.145Z,39.34